Time;durP1;ratioP1;P1;durP2;ratioP2;P2;SDS_P1;SDS_P2;PMS_P1;PMS_P2;Temp;Humidity;BMP_temperature;BMP_pressure;BME280_temperature;BME280_humidity;BME280_pressure;Samples;Min_cycle;Max_cycle;Signal;HPM_P1;HPM_P2
2021/07/27 00:04:10;;;;;;;4.53;2.75;;;22.40;77.10;;;;;;10095189;28;20391;-58
2021/07/27 00:09:01;;;;;;;4.88;3.80;;;22.40;77.10;;;;;;10093445;28;20049;-58
2021/07/27 00:13:51;;;;;;;4.32;3.00;;;22.30;77.20;;;;;;10115203;28;20028;-58
2021/07/27 00:18:42;;;;;;;2.35;1.95;;;22.40;77.30;;;;;;10125636;28;20048;-58
2021/07/27 00:23:34;;;;;;;8.35;3.45;;;22.40;77.40;;;;;;10093582;28;20029;-58
2021/07/27 00:28:25;;;;;;;4.68;2.83;;;22.40;77.30;;;;;;10094330;28;20048;-58
2021/07/27 00:33:15;;;;;;;3.70;3.17;;;22.30;77.40;;;;;;10094328;28;20500;-58
2021/07/27 00:38:09;;;;;;;4.78;2.53;;;22.40;77.50;;;;;;10095125;28;20040;-58
2021/07/27 00:43:13;;;;;;;4.43;2.65;;;22.20;77.40;;;;;;10094565;28;20029;-59
2021/07/27 00:48:04;;;;;;;5.28;2.80;;;22.20;78.20;;;;;;10093913;28;20443;-59
2021/07/27 00:53:01;;;;;;;4.40;2.97;;;22.10;77.30;;;;;;10093555;28;20037;-59
2021/07/27 00:57:52;;;;;;;3.45;2.90;;;22.00;77.40;;;;;;10093392;28;20127;-57
2021/07/27 01:02:43;;;;;;;4.65;2.75;;;21.70;78.00;;;;;;10093654;28;20112;-57
2021/07/27 01:07:34;;;;;;;3.47;2.60;;;21.50;78.10;;;;;;10084213;28;20531;-57
2021/07/27 01:12:24;;;;;;;4.82;2.95;;;21.60;77.90;;;;;;10093288;28;20047;-58
2021/07/27 01:17:15;;;;;;;4.18;2.53;;;21.50;77.90;;;;;;10093434;28;20069;-58
2021/07/27 01:38:15;;;;;;;;;;;21.50;78.50;;;;;;10070041;28;20143;-59
2021/07/27 01:43:03;;;;;;;4.40;2.72;;;21.50;77.90;;;;;;10073224;28;20469;-58
2021/07/27 01:47:54;;;;;;;4.43;2.80;;;21.50;78.10;;;;;;10064758;28;20033;-60
2021/07/27 01:52:47;;;;;;;4.32;2.65;;;21.40;78.20;;;;;;10063750;28;20354;-58
2021/07/27 01:57:37;;;;;;;6.53;2.58;;;21.40;78.50;;;;;;10092630;28;20048;-57
2021/07/27 02:02:28;;;;;;;4.75;2.80;;;21.20;78.60;;;;;;10097856;28;20029;-58
2021/07/27 02:07:19;;;;;;;3.60;2.67;;;21.20;78.90;;;;;;10089921;28;20025;-58
2021/07/27 02:12:35;;;;;;;7.13;2.50;;;21.10;78.90;;;;;;10100351;28;20048;-58
2021/07/27 02:17:22;;;;;;;3.92;2.55;;;21.10;79.00;;;;;;10100097;28;20514;-59
2021/07/27 02:22:13;;;;;;;3.25;2.47;;;21.00;79.10;;;;;;10099108;28;20021;-59
2021/07/27 02:27:04;;;;;;;10.65;2.88;;;21.00;79.10;;;;;;10098699;28;20043;-58
2021/07/27 02:31:55;;;;;;;4.07;2.60;;;21.00;79.10;;;;;;10098643;28;20032;-58
2021/07/27 02:36:45;;;;;;;3.60;2.30;;;20.90;79.50;;;;;;10098511;28;20099;-58
2021/07/27 02:41:36;;;;;;;4.15;2.47;;;21.00;79.20;;;;;;10099021;28;20025;-59
2021/07/27 02:46:27;;;;;;;4.18;2.80;;;20.90;79.20;;;;;;10098243;28;20063;-58
2021/07/27 02:51:18;;;;;;;3.60;3.08;;;20.80;79.50;;;;;;10098149;28;20098;-58
2021/07/27 02:56:08;;;;;;;4.18;2.97;;;20.80;79.40;;;;;;10097450;28;20037;-57
2021/07/27 03:01:04;;;;;;;4.53;2.72;;;20.70;79.70;;;;;;10097676;28;20079;-58
2021/07/27 03:05:56;;;;;;;4.60;3.10;;;20.70;79.80;;;;;;10095407;28;20032;-58
2021/07/27 03:10:47;;;;;;;4.97;3.30;;;20.50;80.00;;;;;;10096010;28;20459;-57
2021/07/27 03:15:40;;;;;;;5.15;3.20;;;20.40;80.00;;;;;;10097414;28;20037;-58
2021/07/27 03:20:32;;;;;;;4.85;2.78;;;20.50;80.20;;;;;;10096856;28;20033;-58
2021/07/27 03:25:24;;;;;;;8.02;3.72;;;20.40;80.20;;;;;;10097169;28;20033;-57
2021/07/27 03:30:16;;;;;;;3.90;3.10;;;20.40;80.40;;;;;;10097417;28;20035;-58
2021/07/27 03:35:07;;;;;;;4.13;2.85;;;20.40;80.60;;;;;;10088360;28;20310;-58
2021/07/27 03:39:58;;;;;;;5.85;3.08;;;20.30;80.60;;;;;;10136439;28;20094;-58
2021/07/27 03:44:56;;;;;;;4.70;3.20;;;20.30;81.30;;;;;;10136053;28;20487;-57
2021/07/27 03:49:47;;;;;;;5.07;2.90;;;20.30;80.60;;;;;;10098510;28;20108;-58
2021/07/27 03:54:37;;;;;;;4.90;2.80;;;20.30;80.70;;;;;;10095566;28;20254;-58
2021/07/27 03:59:31;;;;;;;4.40;2.53;;;20.30;80.80;;;;;;10095811;28;20120;-57
2021/07/27 04:04:22;;;;;;;4.35;3.20;;;20.20;81.00;;;;;;10085494;28;20541;-58
2021/07/27 04:09:13;;;;;;;7.35;3.38;;;20.20;81.10;;;;;;10079586;28;20115;-58
2021/07/27 04:14:04;;;;;;;4.82;3.00;;;20.00;81.40;;;;;;10094657;28;20025;-58
2021/07/27 04:18:55;;;;;;;5.75;3.35;;;20.00;81.40;;;;;;10095275;28;20037;-57
2021/07/27 04:23:45;;;;;;;3.78;2.92;;;20.00;81.50;;;;;;10093831;28;20029;-57
2021/07/27 04:28:36;;;;;;;5.85;3.17;;;20.10;81.40;;;;;;10094581;28;20104;-57
2021/07/27 04:33:26;;;;;;;4.80;2.70;;;20.30;81.00;;;;;;10094445;28;20056;-57
2021/07/27 04:38:17;;;;;;;4.30;2.92;;;20.20;81.10;;;;;;10094690;28;20115;-58
2021/07/27 04:43:08;;;;;;;3.95;2.63;;;20.20;81.20;;;;;;10095598;28;20029;-58
2021/07/27 04:47:58;;;;;;;6.78;3.15;;;20.30;81.10;;;;;;10094173;28;20388;-58
2021/07/27 04:52:52;;;;;;;4.85;3.10;;;20.50;80.80;;;;;;10093728;28;20495;-57
2021/07/27 04:57:43;;;;;;;3.97;3.13;;;20.60;80.60;;;;;;10093648;28;20049;-57
2021/07/27 05:02:33;;;;;;;6.13;3.10;;;20.60;80.70;;;;;;10092512;28;20093;-59
2021/07/27 05:07:24;;;;;;;5.72;2.95;;;20.70;80.50;;;;;;10090756;28;20043;-59
2021/07/27 05:12:16;;;;;;;7.13;3.15;;;20.70;80.30;;;;;;10092715;28;20102;-58
2021/07/27 05:17:08;;;;;;;6.85;3.20;;;20.70;80.20;;;;;;10093488;28;20356;-58
2021/07/27 05:21:58;;;;;;;5.53;3.78;;;20.60;80.30;;;;;;10093259;28;20024;-60
2021/07/27 05:26:49;;;;;;;5.13;2.85;;;20.60;80.20;;;;;;10092950;28;20495;-59
2021/07/27 05:31:40;;;;;;;5.95;3.13;;;20.50;80.50;;;;;;10092921;28;20378;-59
2021/07/27 05:36:30;;;;;;;5.30;2.70;;;20.60;80.10;;;;;;10097840;28;20044;-57
2021/07/27 05:41:21;;;;;;;3.92;2.88;;;20.70;80.00;;;;;;10100658;28;20731;-58
2021/07/27 05:46:12;;;;;;;4.38;2.80;;;20.70;79.80;;;;;;10100627;28;20033;-60
2021/07/27 05:51:03;;;;;;;6.35;3.05;;;20.80;79.50;;;;;;10100198;28;20028;-59
2021/07/27 05:55:57;;;;;;;4.63;3.17;;;20.90;79.60;;;;;;10099276;28;20044;-59
2021/07/27 06:00:48;;;;;;;4.72;3.33;;;20.90;79.30;;;;;;10099878;28;20056;-58
2021/07/27 06:05:38;;;;;;;4.68;2.72;;;20.90;79.10;;;;;;10099856;28;20037;-60
2021/07/27 06:10:29;;;;;;;8.73;3.42;;;21.00;78.70;;;;;;10099150;28;20446;-57
2021/07/27 06:15:19;;;;;;;5.00;2.70;;;20.90;78.70;;;;;;10099170;28;20028;-58
2021/07/27 06:20:10;;;;;;;6.40;3.30;;;21.10;78.40;;;;;;10099165;28;20127;-59
2021/07/27 06:25:03;;;;;;;5.88;3.22;;;21.40;77.70;;;;;;10099429;28;20061;-59
2021/07/27 06:29:54;;;;;;;4.97;2.92;;;21.60;77.50;;;;;;10099428;28;20591;-58
2021/07/27 06:34:45;;;;;;;11.10;3.50;;;21.60;77.30;;;;;;10116698;28;20119;-58
2021/07/27 06:39:38;;;;;;;5.43;3.15;;;21.80;77.10;;;;;;10118702;28;20123;-59
2021/07/27 06:44:29;;;;;;;5.00;2.83;;;21.70;77.20;;;;;;10098241;28;20025;-59
2021/07/27 06:49:20;;;;;;;5.32;3.83;;;21.80;76.90;;;;;;10097948;28;20479;-60
2021/07/27 06:54:10;;;;;;;5.28;2.97;;;21.90;76.80;;;;;;10098010;28;20024;-60
2021/07/27 06:59:03;;;;;;;7.10;3.80;;;21.60;77.00;;;;;;10098043;28;20097;-60
2021/07/27 07:03:53;;;;;;;4.78;3.67;;;21.70;76.80;;;;;;10097199;28;20060;-58
2021/07/27 07:08:44;;;;;;;5.93;3.40;;;21.70;76.70;;;;;;10097877;28;20375;-60
2021/07/27 07:13:34;;;;;;;4.72;2.83;;;21.80;76.40;;;;;;10098742;28;20174;-59
2021/07/27 07:18:25;;;;;;;6.03;3.60;;;22.10;75.90;;;;;;10097959;28;20045;-59
2021/07/27 07:23:16;;;;;;;6.20;3.08;;;22.20;75.70;;;;;;10096947;28;20553;-58
2021/07/27 07:28:07;;;;;;;5.07;3.10;;;22.10;75.60;;;;;;10097754;28;20123;-58
2021/07/27 07:32:59;;;;;;;4.22;2.92;;;22.00;75.70;;;;;;10096312;28;20117;-59
2021/07/27 07:37:50;;;;;;;4.03;2.90;;;22.00;75.40;;;;;;10096721;28;20120;-58
2021/07/27 07:42:40;;;;;;;4.32;3.17;;;22.40;74.70;;;;;;10095494;28;20546;-57
2021/07/27 07:47:31;;;;;;;5.53;2.72;;;22.70;74.20;;;;;;10096341;28;20035;-58
2021/07/27 07:52:22;;;;;;;6.50;3.10;;;22.70;73.80;;;;;;10096106;28;20431;-58
2021/07/27 07:57:12;;;;;;;6.70;2.97;;;22.80;73.50;;;;;;10095457;28;20120;-58
2021/07/27 08:02:03;;;;;;;4.57;3.13;;;23.00;73.30;;;;;;10095460;28;20025;-57
2021/07/27 08:06:54;;;;;;;8.32;4.03;;;23.20;72.80;;;;;;10094289;28;20498;-57
2021/07/27 08:11:44;;;;;;;4.20;2.50;;;23.40;72.60;;;;;;10094474;28;20049;-58
2021/07/27 08:16:35;;;;;;;4.82;3.20;;;23.50;72.10;;;;;;10093638;28;20091;-57
2021/07/27 08:21:26;;;;;;;6.13;3.00;;;23.50;71.90;;;;;;10092615;28;20433;-57
2021/07/27 08:26:17;;;;;;;4.78;2.83;;;23.70;71.80;;;;;;10094607;28;20040;-59
2021/07/27 08:31:07;;;;;;;6.00;3.33;;;23.80;71.10;;;;;;10093931;28;20102;-58
2021/07/27 08:35:58;;;;;;;3.92;3.20;;;24.10;70.70;;;;;;10091618;28;20347;-58
2021/07/27 08:40:49;;;;;;;5.55;2.85;;;24.50;70.00;;;;;;10093330;28;20028;-60
2021/07/27 08:45:40;;;;;;;4.78;3.08;;;24.60;69.30;;;;;;10094561;28;20039;-59
2021/07/27 08:50:31;;;;;;;4.43;3.15;;;24.70;69.20;;;;;;10094121;28;20039;-58
2021/07/27 08:55:22;;;;;;;4.15;3.20;;;24.90;68.90;;;;;;10094221;28;20036;-58
2021/07/27 09:00:13;;;;;;;5.20;2.60;;;25.10;68.30;;;;;;10093066;28;20037;-59
2021/07/27 09:05:11;;;;;;;4.13;2.53;;;25.00;68.00;;;;;;10094333;28;20029;-59
2021/07/27 09:10:22;;;;;;;3.47;2.75;;;25.20;67.80;;;;;;10097978;28;20080;-59
2021/07/27 09:15:13;;;;;;;4.70;2.67;;;25.60;66.80;;;;;;10101934;28;20025;-58
2021/07/27 09:20:04;;;;;;;4.35;2.72;;;25.80;66.60;;;;;;10101225;28;20102;-57
2021/07/27 09:25:06;;;;;;;3.80;2.72;;;25.80;66.20;;;;;;10101701;28;20017;-59
2021/07/27 09:29:56;;;;;;;4.45;2.88;;;25.60;64.70;;;;;;10100792;28;20344;-60
2021/07/27 09:34:47;;;;;;;4.65;2.83;;;25.80;65.10;;;;;;10100973;28;20033;-60
2021/07/27 09:39:39;;;;;;;4.70;2.97;;;25.80;64.60;;;;;;10101055;28;20044;-59
2021/07/27 09:44:31;;;;;;;3.88;2.75;;;25.90;63.90;;;;;;10100602;28;20029;-59
2021/07/27 09:49:22;;;;;;;5.22;2.75;;;26.00;63.20;;;;;;10100084;28;20055;-59
2021/07/27 09:54:13;;;;;;;3.50;2.80;;;26.20;63.10;;;;;;10130059;28;20028;-59
2021/07/27 09:59:04;;;;;;;4.30;3.03;;;26.10;62.60;;;;;;10113035;28;20056;-59
2021/07/27 10:04:00;;;;;;;6.88;3.08;;;26.30;62.30;;;;;;10093587;28;20036;-59
2021/07/27 10:08:56;;;;;;;5.05;2.80;;;26.70;61.70;;;;;;10069013;28;20079;-61
2021/07/27 10:13:49;;;;;;;4.38;3.05;;;26.60;61.50;;;;;;10098492;28;20491;-59
2021/07/27 10:18:40;;;;;;;6.40;4.10;;;26.50;61.20;;;;;;10097568;28;20045;-60
2021/07/27 10:23:33;;;;;;;4.30;2.67;;;26.70;61.70;;;;;;10098637;28;20025;-59
2021/07/27 10:28:26;;;;;;;5.85;3.03;;;26.60;60.60;;;;;;10098730;28;20033;-59
2021/07/27 10:33:27;;;;;;;3.08;2.50;;;26.50;60.40;;;;;;10098564;28;20037;-58
2021/07/27 10:38:18;;;;;;;4.57;2.97;;;26.40;60.00;;;;;;10098908;28;20163;-60
2021/07/27 10:43:09;;;;;;;5.15;2.58;;;26.50;59.60;;;;;;10098320;28;20104;-60
2021/07/27 10:48:00;;;;;;;3.72;3.00;;;26.70;59.00;;;;;;10098276;28;20423;-60
2021/07/27 10:53:17;;;;;;;4.70;3.50;;;27.10;58.60;;;;;;10096500;28;20029;-59
2021/07/27 10:58:16;;;;;;;4.13;2.88;;;27.20;58.10;;;;;;10098134;28;20036;-58
2021/07/27 11:03:07;;;;;;;5.10;2.65;;;27.20;57.60;;;;;;10096493;28;20485;-59
2021/07/27 11:07:57;;;;;;;3.92;2.92;;;27.10;57.60;;;;;;10097547;28;20041;-59
2021/07/27 11:12:49;;;;;;;4.65;3.10;;;27.10;57.10;;;;;;10097127;28;20183;-58
2021/07/27 11:18:00;;;;;;;4.38;2.85;;;27.30;56.30;;;;;;10097462;28;20102;-58
2021/07/27 11:22:59;;;;;;;3.67;2.80;;;27.40;55.40;;;;;;10095179;28;20037;-60
2021/07/27 11:27:50;;;;;;;4.18;3.40;;;27.70;55.10;;;;;;10097046;28;20033;-61
2021/07/27 11:32:46;;;;;;;4.90;2.85;;;28.10;54.50;;;;;;10095831;28;20031;-59
2021/07/27 11:37:37;;;;;;;4.38;3.10;;;28.20;54.30;;;;;;10097094;28;20033;-62
2021/07/27 11:42:33;;;;;;;4.22;3.00;;;28.20;54.30;;;;;;10096130;28;20345;-59
2021/07/27 11:47:24;;;;;;;7.65;3.50;;;28.20;54.20;;;;;;10096202;28;20040;-59
2021/07/27 11:52:27;;;;;;;4.05;3.17;;;28.50;53.70;;;;;;10095811;28;20031;-61
2021/07/27 11:57:20;;;;;;;5.63;2.90;;;28.50;53.20;;;;;;10095859;28;20037;-59
2021/07/27 12:02:11;;;;;;;4.78;2.90;;;28.70;52.90;;;;;;10094736;28;20025;-59
2021/07/27 12:07:02;;;;;;;3.97;2.88;;;28.70;52.50;;;;;;10063933;28;20496;-60
2021/07/27 12:11:53;;;;;;;5.00;3.17;;;28.90;52.10;;;;;;10059427;28;20075;-59
2021/07/27 12:16:43;;;;;;;5.10;3.05;;;29.00;51.60;;;;;;10095286;28;20519;-59
2021/07/27 12:21:34;;;;;;;4.97;2.88;;;28.90;51.80;;;;;;10094706;28;20031;-58
2021/07/27 12:26:24;;;;;;;3.83;2.60;;;29.00;51.30;;;;;;10094722;28;20032;-58
2021/07/27 12:31:15;;;;;;;3.88;3.00;;;29.20;50.80;;;;;;10094062;28;20035;-60
2021/07/27 12:36:06;;;;;;;3.58;2.97;;;29.00;50.30;;;;;;10094186;28;20032;-60
2021/07/27 12:40:56;;;;;;;3.70;2.95;;;28.70;50.50;;;;;;10092455;28;20052;-59
2021/07/27 12:45:47;;;;;;;3.75;3.28;;;28.70;50.00;;;;;;10093955;28;20017;-60
2021/07/27 12:50:37;;;;;;;5.70;3.47;;;28.50;49.90;;;;;;10093521;28;20044;-60
2021/07/27 12:55:28;;;;;;;4.10;2.95;;;28.50;49.60;;;;;;10094178;28;20033;-59
2021/07/27 13:00:19;;;;;;;3.65;3.25;;;28.50;49.50;;;;;;10110201;28;20518;-59
2021/07/27 13:05:10;;;;;;;4.93;2.50;;;28.50;49.50;;;;;;10095301;28;20068;-60
2021/07/27 13:10:02;;;;;;;5.50;3.50;;;28.30;49.30;;;;;;10091110;28;20136;-59
2021/07/27 13:14:53;;;;;;;3.70;2.85;;;28.30;48.90;;;;;;10092557;28;20028;-59
2021/07/27 13:19:44;;;;;;;6.22;3.33;;;28.40;48.80;;;;;;10091543;28;20033;-59
2021/07/27 13:24:34;;;;;;;5.60;3.55;;;28.30;49.00;;;;;;10093189;28;20040;-60
2021/07/27 13:29:25;;;;;;;4.18;3.20;;;28.50;48.90;;;;;;10091636;28;20487;-59
2021/07/27 13:34:19;;;;;;;5.05;2.63;;;28.60;48.70;;;;;;10092706;28;20086;-59
2021/07/27 13:39:09;;;;;;;3.65;3.20;;;29.00;48.40;;;;;;10091131;28;20515;-58
2021/07/27 13:44:00;;;;;;;4.82;3.20;;;29.30;48.30;;;;;;10093331;28;20040;-59
2021/07/27 13:48:51;;;;;;;3.78;3.38;;;30.20;47.80;;;;;;10092647;28;20029;-58
2021/07/27 13:53:41;;;;;;;3.75;3.20;;;30.90;46.90;;;;;;10092820;28;20079;-58
2021/07/27 13:58:32;;;;;;;5.00;2.90;;;30.30;47.30;;;;;;10098877;28;20558;-59
2021/07/27 14:03:23;;;;;;;8.85;5.72;;;29.50;48.30;;;;;;10099101;28;20109;-58
2021/07/27 14:08:13;;;;;;;4.97;3.05;;;28.90;48.90;;;;;;10099739;28;20029;-58
2021/07/27 14:13:05;;;;;;;9.48;3.45;;;28.50;49.10;;;;;;10099628;28;20023;-59
2021/07/27 14:17:56;;;;;;;5.82;2.85;;;28.10;49.30;;;;;;10099522;28;20537;-59
2021/07/27 14:22:47;;;;;;;2.88;2.50;;;28.00;49.20;;;;;;10099582;28;20033;-58
2021/07/27 14:27:37;;;;;;;3.97;2.50;;;27.90;49.10;;;;;;10099412;28;20037;-58
2021/07/27 14:32:28;;;;;;;5.10;2.70;;;27.80;49.10;;;;;;10098682;28;20559;-58
2021/07/27 14:37:19;;;;;;;3.15;2.67;;;27.70;48.80;;;;;;10099704;28;20502;-58
2021/07/27 14:42:09;;;;;;;4.03;2.70;;;27.60;48.30;;;;;;10098507;28;20148;-59
2021/07/27 14:47:00;;;;;;;4.72;2.80;;;27.60;48.80;;;;;;10098671;28;20394;-58
2021/07/27 14:51:51;;;;;;;3.97;2.67;;;27.40;48.10;;;;;;10098198;28;20617;-58
2021/07/27 14:56:42;;;;;;;3.78;2.50;;;27.40;48.00;;;;;;10098178;28;20037;-58
2021/07/27 15:01:33;;;;;;;4.18;2.85;;;27.50;47.70;;;;;;10097570;28;20510;-60
2021/07/27 15:06:23;;;;;;;4.03;2.92;;;27.50;47.80;;;;;;10097173;28;20471;-61
2021/07/27 15:11:14;;;;;;;6.03;2.60;;;27.50;48.00;;;;;;10097547;28;20049;-59
2021/07/27 15:16:06;;;;;;;4.55;2.58;;;27.40;48.00;;;;;;10095926;28;20032;-60
2021/07/27 15:20:56;;;;;;;4.07;3.05;;;27.40;47.90;;;;;;10097094;28;20048;-59
2021/07/27 15:25:47;;;;;;;3.28;2.38;;;27.60;47.80;;;;;;10096635;28;20384;-59
2021/07/27 15:30:41;;;;;;;4.20;2.65;;;27.60;47.50;;;;;;10096717;28;20048;-59
2021/07/27 15:35:32;;;;;;;3.33;2.35;;;27.60;47.60;;;;;;10096777;28;20047;-59
2021/07/27 15:40:22;;;;;;;6.05;3.05;;;27.80;47.50;;;;;;10095892;28;20503;-59
2021/07/27 15:45:13;;;;;;;5.20;2.72;;;27.90;47.50;;;;;;10096731;28;20099;-58
2021/07/27 15:50:04;;;;;;;5.75;3.70;;;27.80;47.70;;;;;;10095677;28;20029;-59
2021/07/27 15:54:55;;;;;;;5.28;2.95;;;27.90;47.70;;;;;;10096465;28;20052;-59
2021/07/27 15:59:46;;;;;;;4.05;2.83;;;28.10;47.50;;;;;;10095459;28;20060;-59
2021/07/27 16:04:37;;;;;;;3.95;2.58;;;28.20;47.40;;;;;;10095179;28;20061;-59
2021/07/27 16:09:28;;;;;;;3.50;2.95;;;28.20;47.30;;;;;;10095011;28;20511;-59
2021/07/27 16:14:19;;;;;;;4.43;2.65;;;28.20;47.50;;;;;;10095809;28;20032;-60
2021/07/27 16:19:10;;;;;;;4.60;2.97;;;28.20;47.40;;;;;;10094462;28;20073;-59
2021/07/27 16:24:01;;;;;;;3.28;2.88;;;27.90;47.60;;;;;;10095157;28;20025;-59
2021/07/27 16:28:51;;;;;;;3.30;2.53;;;27.90;47.80;;;;;;10094865;28;20036;-59
2021/07/27 16:33:42;;;;;;;4.60;3.30;;;27.90;47.80;;;;;;10093002;28;20036;-59
2021/07/27 16:38:33;;;;;;;4.13;2.83;;;27.80;47.90;;;;;;10094403;28;20542;-58
2021/07/27 16:43:23;;;;;;;5.72;2.97;;;27.60;48.00;;;;;;10093794;28;20036;-58
2021/07/27 16:48:14;;;;;;;5.15;3.42;;;27.60;48.20;;;;;;10094002;28;20033;-58
2021/07/27 16:53:05;;;;;;;4.60;3.10;;;27.60;48.40;;;;;;10094699;28;20035;-58
2021/07/27 16:57:55;;;;;;;5.10;3.20;;;27.60;48.30;;;;;;10093593;28;20041;-60
2021/07/27 17:02:46;;;;;;;4.50;2.72;;;27.60;48.30;;;;;;10093275;28;20036;-58
2021/07/27 17:07:36;;;;;;;4.80;3.03;;;27.40;48.90;;;;;;10068357;28;20037;-62
2021/07/27 17:12:27;;;;;;;4.40;3.35;;;27.30;49.70;;;;;;10093314;28;20048;-59
2021/07/27 17:17:18;;;;;;;4.85;3.30;;;27.30;49.20;;;;;;10094357;28;20037;-57
2021/07/27 17:22:09;;;;;;;7.55;4.13;;;27.30;49.40;;;;;;10093013;28;20029;-58
2021/07/27 17:27:01;;;;;;;4.72;3.45;;;27.30;49.60;;;;;;10092849;28;20108;-58
2021/07/27 17:31:52;;;;;;;6.63;4.32;;;27.30;49.90;;;;;;10096542;28;20100;-59
2021/07/27 17:36:43;;;;;;;5.28;3.70;;;27.20;50.30;;;;;;10101032;28;20322;-59
2021/07/27 17:41:34;;;;;;;5.63;3.13;;;27.00;50.40;;;;;;10101071;28;20571;-59
2021/07/27 17:46:24;;;;;;;6.25;3.15;;;26.80;50.80;;;;;;10100401;28;20116;-58
2021/07/27 17:51:15;;;;;;;5.88;4.18;;;26.70;50.90;;;;;;10100433;28;20033;-57
2021/07/27 17:56:06;;;;;;;5.15;3.72;;;26.50;51.20;;;;;;10099722;28;20025;-58
2021/07/27 18:00:56;;;;;;;7.97;4.53;;;26.50;51.20;;;;;;10099984;28;20058;-59
2021/07/27 18:05:47;;;;;;;5.63;3.97;;;26.50;51.40;;;;;;10091153;28;20479;-60
2021/07/27 18:10:38;;;;;;;6.00;3.50;;;26.40;51.90;;;;;;10099926;28;20492;-59
2021/07/27 18:15:28;;;;;;;4.53;3.35;;;26.30;52.30;;;;;;10099897;28;20025;-59
2021/07/27 18:20:19;;;;;;;6.55;3.53;;;26.30;52.60;;;;;;10099920;28;20041;-60
2021/07/27 18:25:10;;;;;;;4.53;3.03;;;26.00;53.00;;;;;;10099583;28;20026;-60
2021/07/27 18:30:01;;;;;;;5.57;3.88;;;24.70;56.20;;;;;;10097332;28;20032;-59
2021/07/27 18:34:52;;;;;;;8.20;4.03;;;24.10;58.80;;;;;;10098737;28;20467;-59
2021/07/27 18:39:42;;;;;;;5.65;3.85;;;23.80;60.50;;;;;;10098385;28;20045;-60
2021/07/27 18:44:35;;;;;;;6.63;4.40;;;23.70;61.20;;;;;;10098560;28;20025;-60
2021/07/27 18:49:25;;;;;;;8.27;5.30;;;23.40;62.90;;;;;;10098661;28;20116;-60
2021/07/27 18:54:16;;;;;;;7.65;4.85;;;23.40;64.20;;;;;;10099111;28;20112;-62
2021/07/27 18:59:06;;;;;;;8.80;5.15;;;23.30;65.10;;;;;;10097359;28;20211;-59
2021/07/27 19:03:57;;;;;;;8.40;3.97;;;23.70;65.20;;;;;;10097901;28;20032;-59
2021/07/27 19:08:48;;;;;;;5.15;3.70;;;23.80;65.10;;;;;;10097794;28;20045;-60
2021/07/27 19:13:39;;;;;;;5.13;3.95;;;24.00;65.20;;;;;;10097059;28;20036;-59
2021/07/27 19:18:30;;;;;;;7.93;4.70;;;24.10;65.50;;;;;;10097506;28;20150;-60
2021/07/27 19:23:24;;;;;;;6.85;3.90;;;24.10;65.80;;;;;;10097632;28;20242;-60
2021/07/27 19:28:15;;;;;;;6.30;4.05;;;24.10;66.70;;;;;;10095183;28;20025;-59
2021/07/27 19:33:06;;;;;;;6.07;4.00;;;24.10;67.10;;;;;;10096733;28;20135;-61
2021/07/27 19:37:56;;;;;;;6.63;4.78;;;24.00;67.30;;;;;;10096466;28;20125;-60
2021/07/27 19:48:34;;;;;;;6.03;4.25;;;23.90;68.00;;;;;;10118614;28;20297;-59
2021/07/27 19:52:50;;;;;;;5.50;3.83;;;23.70;68.30;;;;;;10094752;28;20462;-59
2021/07/27 19:57:40;;;;;;;8.73;4.82;;;23.40;69.30;;;;;;10095739;28;20044;-59
2021/07/27 20:02:31;;;;;;;10.10;4.75;;;23.30;69.50;;;;;;10096072;28;20055;-59
2021/07/27 20:07:22;;;;;;;7.95;4.30;;;23.10;70.40;;;;;;10092838;28;20111;-58
2021/07/27 20:12:13;;;;;;;7.78;4.82;;;23.00;70.80;;;;;;10094865;28;20090;-58
2021/07/27 20:17:03;;;;;;;10.25;6.15;;;22.70;72.30;;;;;;10094641;28;20040;-58
2021/07/27 20:21:54;;;;;;;9.02;5.97;;;22.50;72.90;;;;;;10095225;28;20441;-58
2021/07/27 20:26:45;;;;;;;9.48;6.43;;;22.40;73.80;;;;;;10093730;28;20024;-58
2021/07/27 20:31:36;;;;;;;6.30;4.38;;;22.20;74.80;;;;;;10095084;28;20403;-59
2021/07/27 20:36:26;;;;;;;4.30;2.33;;;21.90;76.10;;;;;;10094534;28;20051;-59
2021/07/27 20:41:17;;;;;;;4.60;2.70;;;21.70;76.90;;;;;;10094334;28;20482;-58
2021/07/27 20:46:08;;;;;;;4.95;2.58;;;21.50;77.20;;;;;;10094446;28;20033;-59
2021/07/27 20:50:58;;;;;;;3.78;2.72;;;21.50;77.20;;;;;;10094300;28;20021;-59
2021/07/27 20:55:49;;;;;;;4.18;2.47;;;21.50;77.10;;;;;;10094705;28;20035;-59
2021/07/27 21:00:39;;;;;;;4.35;2.90;;;21.30;77.40;;;;;;10093395;28;20395;-58
2021/07/27 21:05:30;;;;;;;3.78;2.97;;;21.30;77.10;;;;;;10093840;28;20029;-57
2021/07/27 21:10:21;;;;;;;4.18;2.42;;;21.20;77.60;;;;;;10091976;28;20064;-58
2021/07/27 21:15:11;;;;;;;5.28;2.80;;;21.60;77.00;;;;;;10094805;28;20073;-58
2021/07/27 21:20:02;;;;;;;4.47;3.15;;;21.50;77.00;;;;;;10093643;28;20110;-58
2021/07/27 21:24:53;;;;;;;4.82;3.00;;;21.20;77.50;;;;;;10093476;28;20025;-58
2021/07/27 21:29:43;;;;;;;4.68;2.97;;;21.00;78.30;;;;;;10092725;28;20041;-58
2021/07/27 21:34:34;;;;;;;4.90;3.28;;;21.10;78.00;;;;;;10093398;28;20056;-57
2021/07/27 21:39:25;;;;;;;5.72;3.45;;;21.10;77.90;;;;;;10092915;28;20515;-58
2021/07/27 21:44:15;;;;;;;6.05;3.92;;;21.10;77.50;;;;;;10093259;28;20751;-58
2021/07/27 21:49:06;;;;;;;5.55;3.58;;;21.00;77.50;;;;;;10093570;28;20036;-58
2021/07/27 21:53:58;;;;;;;6.57;4.25;;;21.00;77.80;;;;;;10093676;28;20021;-58
2021/07/27 21:58:49;;;;;;;4.63;3.25;;;21.10;77.60;;;;;;10092654;28;20212;-58
2021/07/27 22:03:40;;;;;;;6.00;3.50;;;21.30;77.20;;;;;;10092479;28;20033;-57
2021/07/27 22:08:30;;;;;;;5.15;3.80;;;21.60;76.50;;;;;;10092520;28;20156;-58
2021/07/27 22:13:21;;;;;;;4.20;3.50;;;21.30;76.90;;;;;;10092700;28;20500;-58
2021/07/27 22:18:12;;;;;;;6.07;3.75;;;21.50;76.80;;;;;;10096938;28;20039;-58
2021/07/27 22:23:02;;;;;;;5.43;3.35;;;21.50;76.20;;;;;;10099914;28;20060;-57
2021/07/27 22:27:53;;;;;;;5.72;3.58;;;21.50;76.40;;;;;;10099078;28;21612;-56
2021/07/27 22:32:44;;;;;;;5.65;2.70;;;21.60;76.20;;;;;;10099273;28;20402;-59
2021/07/27 22:37:35;;;;;;;4.47;2.88;;;21.60;76.10;;;;;;10099222;28;20040;-58
2021/07/27 22:42:25;;;;;;;5.07;3.22;;;21.60;76.30;;;;;;10099415;28;20029;-58
2021/07/27 22:47:16;;;;;;;4.90;3.20;;;21.60;76.40;;;;;;10099459;28;20491;-60
2021/07/27 22:52:07;;;;;;;5.95;3.55;;;21.60;76.30;;;;;;10098684;28;20452;-59
2021/07/27 22:56:57;;;;;;;5.13;3.20;;;21.70;76.20;;;;;;10119981;28;20031;-58
2021/07/27 23:01:48;;;;;;;6.32;3.72;;;21.80;75.90;;;;;;10103146;28;20033;-58
2021/07/27 23:06:38;;;;;;;7.72;3.63;;;21.60;76.30;;;;;;10098326;28;20345;-58
2021/07/27 23:11:29;;;;;;;5.18;3.22;;;21.40;76.70;;;;;;10097449;28;20048;-58
2021/07/27 23:16:21;;;;;;;5.22;2.85;;;21.50;76.80;;;;;;10097184;28;20037;-57
2021/07/27 23:21:12;;;;;;;6.32;3.85;;;21.30;77.00;;;;;;10097439;28;20491;-58
2021/07/27 23:26:36;;;;;;;7.20;4.05;;;21.30;77.20;;;;;;10097275;28;20496;-57
2021/07/27 23:31:26;;;;;;;5.40;3.17;;;21.30;77.40;;;;;;10096221;28;20033;-58
2021/07/27 23:36:18;;;;;;;4.80;3.70;;;21.30;77.40;;;;;;10097019;28;20025;-57
2021/07/27 23:41:09;;;;;;;5.70;4.00;;;21.30;77.60;;;;;;10096535;28;20090;-58
2021/07/27 23:46:00;;;;;;;6.00;3.72;;;21.30;77.70;;;;;;10096781;28;20033;-59
2021/07/27 23:50:50;;;;;;;6.45;3.53;;;21.30;77.80;;;;;;10096131;28;20044;-58
2021/07/27 23:55:41;;;;;;;6.50;3.70;;;21.20;78.00;;;;;;10096677;28;20072;-58
